North Weyburn, Saskatchewan

8:22 PM CST on March 26, 2015 (GMT -0600)
ISKHALBR2 | | Change Station
CLOSE
Current Station
Personal Weather Station
Location: Halbrite, SK
Elevation: 1912 ft
Nearby Weather Stations

Elev 1912 ft 49.48 °N, 103.55 °W | Updated 8 seconds ago

Scattered Clouds
Scattered Clouds
33.6 °F
Feels Like 24 °F
N
13.8
Wind Variable Wind from SE
Gusts 13.8 mph

Today
High -- | Low -- °F
--% Chance of Precip.
Yesterday
High -- | Low -- °F
Precip. -- in
6:45 AM 7:17 PM
Waxing Crescent, 48% visible
Pressure 30.26 in
Visibility 15.0 miles
Clouds Few 12000 ft
Scattered Clouds 21000 ft
Windchill 24 °F
Dew Point 29 °F
Humidity 82%
Rainfall 0.00 in
Snow Depth Not available.
UV 0 out of 12
Pollen Not available.
Air Quality Not available.
Flu Activity Not available.
METAR CYEN 270200Z 11008KT 15SM FEW120 SCT210 M00/M04 A3017 RMK AC2CI2 SLP247

More Conditions Fewer Conditions

Pressure 30.26 in
Visibility 15.0 miles
Clouds Few 12000 ft
Scattered Clouds 21000 ft
Windchill 24 °F
Dew Point 29 °F
Humidity 82%
Rainfall 0.00 in
Snow Depth Not available.
UV 0 out of 12
Pollen Not available.
Air Quality Not available.
Flu Activity Not available.
METAR CYEN 270200Z 11008KT 15SM FEW120 SCT210 M00/M04 A3017 RMK AC2CI2 SLP247

More Conditions Fewer Conditions

10-Day Weather Forecast

Almanac

Astronomy

Mar. 26, 2015 Rise Set
Actual Time
Civil Twilight
Nautical Twilight
Astronomical Twilight
Moon
Length of Visible Light
Length of Day
Tomorrow will be .
, % of the Moon is Illuminated

Today's Extremes

Country Highs Country Lows

Community

WunderPhotos

Upload Photos

1,808,688 photos uploaded!

WunderBlogs® & News

Nearby

Air Quality

  Air Quality AQ Index Pollutant
Not available.

Snow Depth

Station Depth Elevation

Earthquake Activity

City Distance Mag. Time & Date
Minimum magnitude displayed is 2.5.

Coastal Water Temperatures

Place Temperature

Stations

Nearby Weather Stations

Station Location Temp. Windchill Dew Point Humidity Wind Precip. Elev Updated Type